Time;durP1;ratioP1;P1;durP2;ratioP2;P2;SDS_P1;SDS_P2;PMS_P1;PMS_P2;Temp;Humidity;BMP_temperature;BMP_pressure;BME280_temperature;BME280_humidity;BME280_pressure;Samples;Min_cycle;Max_cycle;Signal;HPM_P1;HPM_P2
2023/05/06 00:00:38;;;;;;;10.55;8.88;;;;;;;14.27;86.58;101543.34;5114993;28;20101;-66
2023/05/06 00:03:03;;;;;;;10.52;8.85;;;;;;;14.27;86.76;101540.66;5116219;28;20031;-66
2023/05/06 00:05:29;;;;;;;10.45;8.68;;;;;;;14.28;86.59;101536.25;5115920;28;20044;-66
2023/05/06 00:07:54;;;;;;;9.57;8.57;;;;;;;14.28;86.35;101533.59;5115976;28;20485;-67
2023/05/06 00:10:20;;;;;;;12.70;8.77;;;;;;;14.32;86.43;101529.19;5115619;28;20044;-66
2023/05/06 00:12:45;;;;;;;11.48;9.38;;;;;;;14.29;86.39;101530.94;5115667;28;20035;-67
2023/05/06 00:15:11;;;;;;;11.77;9.43;;;;;;;14.26;86.02;101536.25;5115838;28;20027;-67
2023/05/06 00:17:36;;;;;;;10.05;7.88;;;;;;;14.21;85.35;101532.63;5115820;28;20538;-66
2023/05/06 00:20:02;;;;;;;11.27;9.07;;;;;;;14.14;86.64;101529.94;5115615;28;20031;-66
2023/05/06 00:22:28;;;;;;;11.43;9.30;;;;;;;13.99;87.03;101520.97;5115948;28;20028;-66
2023/05/06 00:24:53;;;;;;;12.13;9.30;;;;;;;13.95;86.84;101528.91;5115595;28;20073;-66
2023/05/06 00:27:18;;;;;;;12.07;8.70;;;;;;;13.98;86.48;101531.59;5115662;28;20027;-67
2023/05/06 00:29:44;;;;;;;13.98;9.38;;;;;;;13.91;86.75;101529.75;5115426;28;20032;-66
2023/05/06 00:32:10;;;;;;;11.63;9.45;;;;;;;13.94;87.46;101529.78;5115702;28;20034;-66
2023/05/06 00:34:36;;;;;;;11.95;9.95;;;;;;;13.91;87.23;101530.66;5115473;28;20473;-66
2023/05/06 00:37:02;;;;;;;13.38;9.88;;;;;;;13.92;87.20;101528.91;5114387;28;20023;-66
2023/05/06 00:39:28;;;;;;;9.77;8.20;;;;;;;13.95;87.10;101521.81;5115617;28;20470;-66
2023/05/06 00:41:58;;;;;;;13.57;9.80;;;;;;;13.91;86.81;101525.34;5115221;28;20036;-66
2023/05/06 00:44:24;;;;;;;13.68;8.63;;;;;;;13.87;86.01;101522.63;5115526;28;20114;-66
2023/05/06 00:46:51;;;;;;;10.50;8.85;;;;;;;13.84;86.45;101526.19;5115143;28;20106;-66
2023/05/06 00:49:16;;;;;;;10.77;8.90;;;;;;;13.75;86.50;101528.75;5115121;28;20023;-66
2023/05/06 00:51:41;;;;;;;10.65;9.07;;;;;;;13.69;86.58;101520.72;5115104;28;20031;-66
2023/05/06 00:54:07;;;;;;;10.45;8.65;;;;;;;13.66;86.75;101526.91;5115034;28;20034;-67
2023/05/06 00:56:32;;;;;;;11.88;9.30;;;;;;;13.66;86.98;101521.59;5114038;28;20020;-66
2023/05/06 00:58:58;;;;;;;13.20;10.05;;;;;;;13.65;87.55;101517.16;5115010;28;20392;-66
2023/05/06 01:01:25;;;;;;;12.02;9.00;;;;;;;13.70;86.99;101518.09;5114889;28;20031;-67
2023/05/06 01:03:55;;;;;;;13.02;9.38;;;;;;;13.73;86.80;101518.09;5114840;28;20024;-67
2023/05/06 01:06:40;;;;;;;9.75;8.45;;;;;;;13.78;86.27;101507.50;5115008;28;20057;-66
2023/05/06 01:09:28;;;;;;;12.15;9.52;;;;;;;13.78;86.32;101520.78;5114742;28;20036;-66
2023/05/06 01:12:29;;;;;;;13.27;9.32;;;;;;;13.80;86.36;101512.88;5114940;28;20157;-66
2023/05/06 01:15:05;;;;;;;10.60;8.73;;;;;;;13.70;86.59;101515.44;5109092;28;20110;-66
2023/05/06 01:17:34;;;;;;;13.00;10.00;;;;;;;13.69;86.73;101513.63;5114941;28;20063;-66
2023/05/06 01:20:01;;;;;;;11.18;9.27;;;;;;;13.58;86.04;101514.44;5114466;28;20381;-66
2023/05/06 01:22:27;;;;;;;11.98;8.02;;;;;;;13.50;85.09;101507.28;5113180;28;20028;-66
2023/05/06 01:24:53;;;;;;;13.07;9.57;;;;;;;13.39;86.52;101514.25;5113207;28;20031;-66
2023/05/06 01:27:20;;;;;;;10.20;8.40;;;;;;;13.24;85.68;101515.00;5114435;28;20027;-67
2023/05/06 01:29:47;;;;;;;9.55;8.30;;;;;;;13.11;86.64;101515.72;5114468;28;20055;-66
2023/05/06 01:32:18;;;;;;;12.32;8.30;;;;;;;13.03;87.24;101512.97;5113120;28;20020;-66
2023/05/06 01:35:06;;;;;;;9.73;7.88;;;;;;;13.04;86.63;101514.72;5113010;28;20024;-67
2023/05/06 01:37:44;;;;;;;10.93;9.15;;;;;;;13.07;87.31;101508.59;5114490;28;20377;-66
2023/05/06 01:40:11;;;;;;;13.95;8.82;;;;;;;13.09;86.64;101506.81;5114178;28;20137;-66
2023/05/06 01:42:38;;;;;;;11.68;8.48;;;;;;;13.09;86.54;101505.94;5113948;28;20426;-66
2023/05/06 01:45:05;;;;;;;9.20;8.18;;;;;;;13.12;86.38;101504.22;5114120;28;20067;-66
2023/05/06 01:47:32;;;;;;;11.52;8.35;;;;;;;13.02;86.26;101508.53;5114197;28;20098;-66
2023/05/06 01:49:58;;;;;;;12.30;9.30;;;;;;;13.04;86.70;101513.84;5112855;28;20053;-66
2023/05/06 01:52:25;;;;;;;10.20;8.48;;;;;;;13.01;86.05;101514.69;5112676;28;20031;-67
2023/05/06 01:54:50;;;;;;;14.18;8.82;;;;;;;13.00;85.70;101517.34;5113472;28;20489;-66
2023/05/06 01:57:16;;;;;;;12.07;8.18;;;;;;;12.90;85.65;101518.13;5114236;28;20048;-66
2023/05/06 01:59:41;;;;;;;11.02;7.72;;;;;;;12.81;85.67;101525.97;5114074;28;20027;-66
2023/05/06 02:02:07;;;;;;;11.18;8.48;;;;;;;12.72;86.08;101534.69;5112662;28;20030;-66
2023/05/06 02:04:32;;;;;;;9.35;7.40;;;;;;;12.58;86.31;101531.84;5112519;28;20034;-66
2023/05/06 02:06:58;;;;;;;9.55;8.15;;;;;;;12.49;86.99;101539.66;5113644;28;20104;-66
2023/05/06 02:09:23;;;;;;;12.52;8.75;;;;;;;12.44;89.16;101531.66;5113486;28;20080;-67
2023/05/06 02:11:48;;;;;;;10.57;9.02;;;;;;;12.44;89.00;101536.06;5113792;28;20033;-66
2023/05/06 02:14:14;;;;;;;11.15;9.18;;;;;;;12.43;89.75;101535.19;5113706;28;20069;-66
2023/05/06 02:16:39;;;;;;;10.20;8.40;;;;;;;12.43;89.09;101529.00;5113706;28;20028;-66
2023/05/06 02:19:05;;;;;;;9.98;8.35;;;;;;;12.38;89.30;101536.00;5113662;28;20119;-66
2023/05/06 02:21:30;;;;;;;12.05;7.85;;;;;;;12.33;89.33;101541.19;5113864;28;20415;-66
2023/05/06 02:23:56;;;;;;;8.68;7.32;;;;;;;12.35;88.84;101538.59;5113659;28;20024;-67
2023/05/06 02:26:21;;;;;;;9.45;8.05;;;;;;;12.37;89.20;101536.84;5113642;28;20388;-66
2023/05/06 02:28:47;;;;;;;9.35;7.35;;;;;;;12.35;88.65;101539.47;5113824;28;20024;-66
2023/05/06 02:31:16;;;;;;;9.38;7.43;;;;;;;12.31;88.54;101537.66;5113565;28;20020;-66
2023/05/06 02:33:45;;;;;;;12.52;7.57;;;;;;;12.26;88.96;101542.00;5113561;28;20039;-66
2023/05/06 02:36:10;;;;;;;10.98;8.60;;;;;;;12.19;89.39;101535.69;5113650;28;20415;-66
2023/05/06 02:38:35;;;;;;;10.40;8.02;;;;;;;12.17;90.06;101532.16;5113694;28;20032;-66
2023/05/06 02:41:01;;;;;;;11.30;8.75;;;;;;;12.16;90.31;101529.44;5113481;28;20481;-66
2023/05/06 02:43:26;;;;;;;10.85;8.50;;;;;;;12.14;91.22;101529.44;5113340;28;20053;-66
2023/05/06 02:45:52;;;;;;;7.28;6.53;;;;;;;12.08;89.06;101524.06;5113609;28;20049;-66
2023/05/06 02:48:17;;;;;;;7.85;6.40;;;;;;;11.97;89.31;101529.19;5113373;28;20074;-66
2023/05/06 02:50:43;;;;;;;11.13;7.32;;;;;;;11.88;90.22;101525.50;5113579;28;20027;-66
2023/05/06 02:53:09;;;;;;;10.02;8.02;;;;;;;11.84;90.81;101529.84;5113398;28;20073;-66
2023/05/06 02:55:35;;;;;;;9.43;7.75;;;;;;;11.84;90.85;101518.38;5113670;28;20026;-66
2023/05/06 02:58:01;;;;;;;8.63;7.30;;;;;;;11.87;90.64;101529.03;5113552;28;20110;-67
2023/05/06 03:00:27;;;;;;;10.27;7.57;;;;;;;11.89;90.50;101529.91;5113250;28;20122;-65
2023/05/06 03:02:53;;;;;;;8.63;6.15;;;;;;;11.93;89.83;101531.75;5113231;28;20023;-65
2023/05/06 03:05:18;;;;;;;16.52;5.60;;;;;;;11.93;89.31;101530.00;5113171;28;20034;-65
2023/05/06 03:07:43;;;;;;;6.10;5.50;;;;;;;11.92;88.35;101528.22;5115944;28;20500;-65
2023/05/06 03:10:09;;;;;;;7.95;6.28;;;;;;;11.88;89.05;101526.38;5116924;28;20048;-65
2023/05/06 03:12:35;;;;;;;9.60;6.82;;;;;;;11.82;88.94;101523.63;5117194;28;20031;-66
2023/05/06 03:15:00;;;;;;;9.05;7.15;;;;;;;11.80;89.44;101517.38;5117059;28;20024;-66
2023/05/06 03:17:27;;;;;;;8.40;6.68;;;;;;;11.77;89.63;101535.88;5098828;28;20036;-66
2023/05/06 03:19:52;;;;;;;9.32;7.63;;;;;;;11.73;90.33;101526.09;5116927;28;20389;-66
2023/05/06 03:22:18;;;;;;;10.60;7.95;;;;;;;11.70;90.86;101521.66;5116826;28;20461;-66
2023/05/06 03:24:43;;;;;;;11.50;8.80;;;;;;;11.68;90.91;101527.75;5115640;28;20074;-66
2023/05/06 03:27:09;;;;;;;10.45;8.15;;;;;;;11.66;91.07;101524.22;5117095;28;20036;-66
2023/05/06 03:29:34;;;;;;;10.00;8.38;;;;;;;11.64;91.61;101520.63;5116666;28;20026;-65
2023/05/06 03:32:03;;;;;;;11.88;7.97;;;;;;;11.65;91.30;101520.69;5116967;28;20028;-65
2023/05/06 03:34:29;;;;;;;7.00;6.25;;;;;;;11.65;90.00;101519.75;5116598;28;20036;-65
2023/05/06 03:36:55;;;;;;;7.88;6.22;;;;;;;11.72;89.35;101506.66;5115261;28;20028;-65
2023/05/06 03:39:20;;;;;;;7.82;6.57;;;;;;;11.84;88.90;101515.72;5116551;28;20550;-65
2023/05/06 03:41:45;;;;;;;7.38;5.93;;;;;;;11.85;87.73;101510.44;5116383;28;20114;-65
2023/05/06 03:44:11;;;;;;;8.63;6.60;;;;;;;11.89;87.42;101511.38;5116480;28;20023;-66
2023/05/06 03:46:37;;;;;;;7.75;5.25;;;;;;;11.88;86.62;101513.16;5116428;28;20130;-66
2023/05/06 03:49:03;;;;;;;7.80;6.05;;;;;;;11.79;86.34;101511.22;5115413;28;20035;-69
2023/05/06 03:51:29;;;;;;;7.68;5.80;;;;;;;11.73;86.24;101512.84;5116308;28;20052;-66
2023/05/06 03:53:55;;;;;;;7.72;6.05;;;;;;;11.62;87.06;101515.34;5116298;28;20043;-67
2023/05/06 03:56:21;;;;;;;7.22;6.05;;;;;;;11.54;87.21;101512.53;5116543;27;20027;-65
2023/05/06 03:58:47;;;;;;;8.05;6.28;;;;;;;11.47;88.02;101517.69;5116123;28;20422;-65
2023/05/06 04:01:12;;;;;;;7.70;6.00;;;;;;;11.43;88.31;101522.03;5115209;28;20030;-66
2023/05/06 04:03:38;;;;;;;7.22;5.95;;;;;;;11.40;88.40;101524.66;5116048;28;20550;-66
2023/05/06 04:06:05;;;;;;;7.22;5.72;;;;;;;11.36;89.08;101521.91;5116237;28;20080;-67
2023/05/06 04:08:30;;;;;;;8.63;6.35;;;;;;;11.28;90.00;101525.31;5114809;28;20496;-65
2023/05/06 04:10:56;;;;;;;8.70;6.82;;;;;;;11.29;90.83;101520.91;5115770;28;20073;-65
2023/05/06 04:13:21;;;;;;;9.23;6.78;;;;;;;11.32;91.77;101531.56;5115777;28;20481;-65
2023/05/06 04:15:48;;;;;;;9.27;7.07;;;;;;;11.31;91.71;101528.88;5116088;28;20020;-65
2023/05/06 04:18:17;;;;;;;10.45;7.35;;;;;;;11.36;91.85;101521.91;5115557;28;20076;-66
2023/05/06 04:20:46;;;;;;;10.40;7.60;;;;;;;11.40;91.68;101531.69;5115927;28;20389;-66
2023/05/06 04:23:12;;;;;;;10.68;7.25;;;;;;;11.42;91.28;101524.66;5114820;28;20389;-66
2023/05/06 04:25:37;;;;;;;9.50;6.95;;;;;;;11.45;91.54;101540.59;5115653;28;20024;-65
2023/05/06 04:28:03;;;;;;;9.45;7.35;;;;;;;11.46;91.66;101539.75;5115520;28;20358;-66
2023/05/06 04:30:29;;;;;;;10.55;7.05;;;;;;;11.47;91.31;101534.47;5115826;28;20036;-65
2023/05/06 04:32:54;;;;;;;10.32;7.70;;;;;;;11.52;91.28;101543.41;5115718;28;20457;-66
2023/05/06 04:35:20;;;;;;;9.82;7.57;;;;;;;11.58;91.84;101542.59;5115636;28;20031;-66
2023/05/06 04:37:47;;;;;;;10.20;7.93;;;;;;;11.66;91.41;101532.16;5115413;28;20028;-65
2023/05/06 04:40:13;;;;;;;9.70;7.55;;;;;;;11.78;91.33;101529.72;5115667;28;20040;-66
2023/05/06 04:42:38;;;;;;;9.00;6.38;;;;;;;11.86;90.04;101535.16;5115203;28;20097;-66
2023/05/06 04:45:04;;;;;;;10.25;6.10;;;;;;;11.94;89.28;101539.72;5115359;28;20024;-65
2023/05/06 04:47:29;;;;;;;6.32;5.03;;;;;;;11.96;89.04;101538.00;5113911;28;20038;-66
2023/05/06 04:49:56;;;;;;;6.72;4.78;;;;;;;11.94;88.92;101546.78;5115094;28;20035;-65
2023/05/06 04:52:21;;;;;;;6.53;5.20;;;;;;;12.01;89.07;101543.38;5115090;28;20421;-66
2023/05/06 04:54:46;;;;;;;9.25;6.40;;;;;;;12.11;89.93;101547.03;5115075;28;20110;-65
2023/05/06 04:57:12;;;;;;;10.40;6.65;;;;;;;12.19;89.70;101545.41;5113744;28;20102;-66
2023/05/06 04:59:39;;;;;;;8.38;6.93;;;;;;;12.26;89.63;101545.53;5115240;28;20043;-66
2023/05/06 05:02:04;;;;;;;9.35;7.32;;;;;;;12.33;89.52;101550.91;5114931;28;20028;-66
2023/05/06 05:04:29;;;;;;;10.45;7.18;;;;;;;12.39;89.51;101553.66;5113726;28;20031;-66
2023/05/06 05:06:56;;;;;;;9.52;7.05;;;;;;;12.48;89.72;101553.78;5115033;28;20023;-66
2023/05/06 05:09:21;;;;;;;9.52;7.15;;;;;;;12.53;89.72;101560.94;5114459;28;20035;-65
2023/05/06 05:11:47;;;;;;;10.57;6.70;;;;;;;12.53;90.07;101565.34;5114700;28;20042;-66
2023/05/06 05:14:12;;;;;;;9.00;6.82;;;;;;;12.49;90.46;101567.06;5114737;28;20034;-66
2023/05/06 05:16:38;;;;;;;11.35;7.60;;;;;;;12.48;91.00;101561.75;5113404;28;20028;-65
2023/05/06 05:19:03;;;;;;;11.05;7.88;;;;;;;12.46;91.58;101577.66;5114606;28;20031;-65
2023/05/06 05:21:28;;;;;;;10.38;7.82;;;;;;;12.46;91.85;101568.78;5113302;28;20032;-65
2023/05/06 05:23:54;;;;;;;10.63;7.97;;;;;;;12.51;91.88;101569.75;5114545;28;20112;-65
2023/05/06 05:26:20;;;;;;;10.93;7.82;;;;;;;12.62;92.29;101575.19;5114494;28;20112;-65
2023/05/06 05:28:46;;;;;;;12.57;8.10;;;;;;;12.66;91.88;101571.72;5112483;28;20035;-66
2023/05/06 05:31:11;;;;;;;9.98;7.07;;;;;;;12.70;91.66;101581.50;5114273;28;20032;-65
2023/05/06 05:33:37;;;;;;;8.85;7.22;;;;;;;12.69;92.22;101582.38;5114567;28;20027;-66
2023/05/06 05:36:03;;;;;;;10.00;7.35;;;;;;;12.72;92.02;101582.44;5114189;28;20485;-65
2023/05/06 05:38:29;;;;;;;12.63;7.80;;;;;;;12.76;92.07;101579.84;5114526;28;20035;-65
2023/05/06 05:40:54;;;;;;;11.27;7.78;;;;;;;12.87;92.06;101581.72;5114224;28;20031;-66
2023/05/06 05:43:21;;;;;;;9.13;7.20;;;;;;;12.91;91.65;101587.09;5114011;28;20495;-66
2023/05/06 05:45:47;;;;;;;9.43;7.35;;;;;;;12.97;91.57;101589.81;5114019;28;20114;-66
2023/05/06 05:48:12;;;;;;;13.32;7.72;;;;;;;13.01;91.67;101590.75;5112690;28;20111;-66
2023/05/06 05:50:37;;;;;;;11.70;7.20;;;;;;;13.07;91.97;101592.59;5113914;28;20370;-65
2023/05/06 05:53:04;;;;;;;11.73;7.85;;;;;;;13.05;92.03;101597.88;5112666;28;20043;-65
2023/05/06 05:55:30;;;;;;;12.98;8.05;;;;;;;13.09;92.25;101601.47;5114242;28;20106;-65
2023/05/06 05:57:55;;;;;;;13.25;7.72;;;;;;;13.07;92.66;101588.19;5113064;28;20200;-66
2023/05/06 06:00:21;;;;;;;11.48;7.28;;;;;;;13.26;91.91;101595.50;5113959;28;20508;-65
2023/05/06 06:02:46;;;;;;;10.18;7.10;;;;;;;13.47;91.30;101586.91;5113968;28;20542;-66
2023/05/06 06:05:12;;;;;;;11.35;7.68;;;;;;;13.68;90.59;101591.53;5113804;28;20112;-66
2023/05/06 06:07:38;;;;;;;13.63;7.95;;;;;;;13.74;90.54;101594.25;5113785;28;20036;-65
2023/05/06 06:10:04;;;;;;;10.93;7.35;;;;;;;13.84;90.71;101589.06;5113602;28;20051;-65
2023/05/06 06:12:29;;;;;;;13.30;7.18;;;;;;;14.01;90.33;101583.00;5113661;28;20500;-66
2023/05/06 06:14:55;;;;;;;10.90;7.35;;;;;;;14.18;89.31;101585.81;5113982;28;20105;-65
2023/05/06 06:17:20;;;;;;;12.43;6.82;;;;;;;14.37;89.46;101588.59;5113778;28;20508;-66
2023/05/06 06:19:46;;;;;;;10.98;6.57;;;;;;;14.53;88.36;101585.19;5113795;28;20038;-66
2023/05/06 06:22:11;;;;;;;12.00;7.47;;;;;;;14.67;88.20;101585.28;5113460;28;20027;-65
2023/05/06 06:24:37;;;;;;;11.02;6.70;;;;;;;14.83;87.33;101589.78;5113851;28;20027;-65
2023/05/06 06:27:02;;;;;;;13.35;7.07;;;;;;;14.97;88.33;101589.84;5113802;28;20055;-65
2023/05/06 06:29:27;;;;;;;11.30;7.63;;;;;;;15.12;88.16;101592.59;5113364;28;20089;-66
2023/05/06 06:31:57;;;;;;;11.02;6.63;;;;;;;15.32;87.07;101591.75;5113535;28;20036;-65
2023/05/06 06:34:23;;;;;;;9.75;6.40;;;;;;;15.49;85.35;101598.91;5112255;28;20063;-66
2023/05/06 06:36:48;;;;;;;12.48;6.45;;;;;;;15.51;84.28;101596.28;5113563;28;20062;-65
2023/05/06 06:39:13;;;;;;;10.88;6.97;;;;;;;15.66;86.64;101588.31;5113206;28;20441;-65
2023/05/06 06:41:39;;;;;;;10.05;6.70;;;;;;;15.68;84.51;101593.69;5115964;28;20024;-64
2023/05/06 06:44:05;;;;;;;13.82;6.03;;;;;;;15.66;82.00;101591.00;5117513;28;20094;-65
2023/05/06 06:46:30;;;;;;;10.10;6.22;;;;;;;15.62;84.42;101596.28;5116909;28;20089;-64
2023/05/06 06:48:56;;;;;;;11.02;6.60;;;;;;;15.72;84.35;101600.78;5115821;28;20106;-65
2023/05/06 06:51:21;;;;;;;12.27;6.35;;;;;;;15.83;84.35;101598.13;5117472;28;20118;-64
2023/05/06 06:53:47;;;;;;;9.20;6.22;;;;;;;15.84;82.87;101605.22;5116269;28;20050;-64
2023/05/06 06:56:14;;;;;;;11.65;6.55;;;;;;;15.92;83.33;101598.13;5117704;28;20016;-64
2023/05/06 06:58:40;;;;;;;12.13;6.28;;;;;;;16.07;82.30;101600.81;5117656;28;20381;-64
2023/05/06 07:01:05;;;;;;;11.65;6.18;;;;;;;16.22;82.80;101599.91;5117392;28;20023;-64
2023/05/06 07:03:31;;;;;;;10.00;6.32;;;;;;;16.36;81.77;101589.22;5117484;28;20438;-64
2023/05/06 07:05:58;;;;;;;8.88;6.40;;;;;;;16.63;81.03;101604.31;5117062;28;20080;-65
2023/05/06 07:08:23;;;;;;;10.75;6.40;;;;;;;16.75;79.50;101602.56;5117328;28;20027;-65
2023/05/06 07:10:50;;;;;;;10.75;6.35;;;;;;;16.92;79.44;101601.63;5116695;28;20519;-62
2023/05/06 07:13:15;;;;;;;10.75;6.43;;;;;;;16.98;79.17;101601.59;5116874;28;20028;-63
2023/05/06 07:15:41;;;;;;;11.90;6.68;;;;;;;17.13;78.62;101605.97;5116977;28;20027;-63
2023/05/06 07:18:06;;;;;;;9.23;6.38;;;;;;;17.09;77.23;101602.44;5117006;28;20038;-64
2023/05/06 07:20:31;;;;;;;11.20;6.35;;;;;;;17.25;78.27;101611.25;5116750;28;20027;-63
2023/05/06 07:22:57;;;;;;;10.30;6.75;;;;;;;17.26;76.94;101613.94;5116769;28;20024;-63
2023/05/06 07:25:22;;;;;;;14.07;7.35;;;;;;;17.14;76.64;101611.31;5115465;28;20480;-63
2023/05/06 07:27:48;;;;;;;11.80;6.88;;;;;;;17.13;77.65;101620.22;5116727;28;20406;-63
2023/05/06 07:30:14;;;;;;;13.00;7.35;;;;;;;17.13;77.98;101622.00;5117001;28;20111;-63
2023/05/06 07:32:40;;;;;;;13.20;7.50;;;;;;;17.22;77.81;101621.97;5116644;28;20020;-64
2023/05/06 07:35:06;;;;;;;12.93;7.55;;;;;;;17.31;78.45;101619.25;5116696;28;20081;-63
2023/05/06 07:37:31;;;;;;;15.63;8.20;;;;;;;17.45;77.10;101624.53;5116430;28;20034;-63
2023/05/06 07:39:57;;;;;;;14.63;7.75;;;;;;;17.71;75.92;101613.69;5116488;28;20115;-63
2023/05/06 07:42:22;;;;;;;14.82;7.53;;;;;;;17.97;74.70;101614.41;5115443;28;20024;-62
2023/05/06 07:44:48;;;;;;;13.82;7.43;;;;;;;18.21;73.50;101613.34;5116448;28;20023;-63
2023/05/06 07:47:24;;;;;;;14.20;6.97;;;;;;;18.32;73.25;101618.59;5116659;28;20062;-63
2023/05/06 07:49:50;;;;;;;17.52;8.07;;;;;;;18.34;73.19;101619.47;5116572;27;20027;-63
2023/05/06 07:52:16;;;;;;;16.73;8.23;;;;;;;18.52;73.22;101613.06;5115371;28;20493;-63
2023/05/06 07:54:41;;;;;;;16.08;8.00;;;;;;;18.66;73.85;101620.94;5115123;28;20069;-63
2023/05/06 07:57:07;;;;;;;21.55;8.90;;;;;;;18.89;73.37;101610.06;5116232;28;20384;-63
2023/05/06 07:59:32;;;;;;;15.07;8.20;;;;;;;18.95;70.50;101615.31;5116132;28;20053;-63
2023/05/06 08:01:57;;;;;;;13.30;8.20;;;;;;;19.09;70.12;101618.72;5116171;28;20019;-63
2023/05/06 08:04:23;;;;;;;12.85;7.97;;;;;;;19.14;69.75;101616.88;5115218;28;20032;-63
2023/05/06 08:06:48;;;;;;;13.52;8.13;;;;;;;19.35;70.68;101617.50;5116235;28;20436;-63
2023/05/06 08:09:13;;;;;;;15.98;8.32;;;;;;;19.40;72.63;101613.88;5115859;28;20381;-62
2023/05/06 08:11:39;;;;;;;14.73;7.93;;;;;;;19.56;70.33;101616.31;5115731;28;20055;-63
2023/05/06 08:14:04;;;;;;;13.90;8.63;;;;;;;19.77;68.78;101624.97;5115801;28;20027;-63
2023/05/06 08:16:30;;;;;;;12.50;8.02;;;;;;;19.98;66.86;101618.41;5115973;28;20065;-63
2023/05/06 08:18:55;;;;;;;18.27;8.38;;;;;;;20.11;65.68;101615.53;5116072;28;20405;-62
2023/05/06 08:21:21;;;;;;;14.07;8.35;;;;;;;20.10;64.13;101620.00;5115942;28;20028;-62
2023/05/06 08:23:46;;;;;;;13.70;8.23;;;;;;;20.10;64.81;101621.81;5115914;28;20556;-62
2023/05/06 08:26:11;;;;;;;13.63;8.00;;;;;;;20.19;62.71;101618.97;5115691;28;20362;-63
2023/05/06 08:28:37;;;;;;;11.40;7.43;;;;;;;20.33;62.04;101616.03;5115807;28;20037;-63
2023/05/06 08:31:02;;;;;;;12.82;7.40;;;;;;;20.60;64.14;101612.91;5115620;27;20024;-63
2023/05/06 08:33:29;;;;;;;15.38;7.30;;;;;;;20.84;62.56;101611.53;5115813;28;20034;-62
2023/05/06 08:35:56;;;;;;;13.63;7.75;;;;;;;20.86;62.82;101600.78;5115648;28;20028;-62
2023/05/06 08:38:22;;;;;;;11.40;7.53;;;;;;;20.87;60.65;101605.25;5115450;28;20039;-63
2023/05/06 08:40:47;;;;;;;9.52;6.63;;;;;;;20.98;61.38;101608.56;5114206;28;20024;-62
2023/05/06 08:43:13;;;;;;;13.73;6.95;;;;;;;21.08;60.82;101618.25;5113071;28;20020;-63
2023/05/06 08:45:40;;;;;;;11.57;6.32;;;;;;;21.19;58.57;101605.44;5114952;28;20492;-62
2023/05/06 08:48:06;;;;;;;13.00;6.45;;;;;;;21.40;61.14;101603.25;5113828;28;20500;-63
2023/05/06 08:50:36;;;;;;;9.07;6.05;;;;;;;21.53;60.17;101607.44;5114197;28;20549;-63
2023/05/06 08:53:02;;;;;;;10.85;6.22;;;;;;;21.56;57.27;101603.81;5114259;28;20430;-63
2023/05/06 08:55:29;;;;;;;8.13;5.25;;;;;;;21.35;55.29;101605.16;5114945;28;20030;-63
2023/05/06 08:57:56;;;;;;;8.70;5.53;;;;;;;21.54;57.46;101597.56;5113566;28;20032;-63
2023/05/06 09:00:21;;;;;;;8.80;5.50;;;;;;;21.91;56.18;101600.28;5114929;28;20031;-63
2023/05/06 09:02:46;;;;;;;9.15;5.72;;;;;;;22.03;57.50;101591.91;5114918;28;20396;-63
2023/05/06 09:05:12;;;;;;;7.93;4.70;;;;;;;22.21;54.99;101602.25;5114723;28;20107;-62
2023/05/06 09:07:37;;;;;;;7.57;4.70;;;;;;;22.29;53.65;101590.41;5113368;28;20024;-64
2023/05/06 09:10:11;;;;;;;8.75;4.78;;;;;;;22.34;55.45;101594.72;5114256;28;20500;-63
2023/05/06 09:12:37;;;;;;;7.47;4.80;;;;;;;22.36;53.42;101586.63;5114648;28;20039;-63
2023/05/06 09:15:03;;;;;;;10.50;5.70;;;;;;;22.55;52.24;101585.19;5114894;28;20086;-62
2023/05/06 09:17:31;;;;;;;7.75;4.40;;;;;;;22.74;52.05;101577.50;5114841;28;20445;-63
2023/05/06 09:19:57;;;;;;;8.35;4.60;;;;;;;22.95;49.78;101581.41;5114678;28;20036;-63
2023/05/06 09:22:31;;;;;;;7.13;4.10;;;;;;;23.04;51.75;101581.16;5114438;28;20519;-63
2023/05/06 09:24:57;;;;;;;6.35;3.90;;;;;;;22.89;51.01;101581.56;5114567;28;20031;-63
2023/05/06 09:27:25;;;;;;;9.93;4.32;;;;;;;22.88;50.28;101580.69;5114429;28;20100;-63
2023/05/06 09:30:08;;;;;;;6.97;3.92;;;;;;;23.24;51.19;101580.56;5114364;28;20033;-63
2023/05/06 09:32:34;;;;;;;6.97;3.30;;;;;;;23.32;48.67;101583.91;5113146;28;20039;-63
2023/05/06 09:35:01;;;;;;;5.90;3.45;;;;;;;23.40;50.95;101584.56;5114613;28;20181;-63
2023/05/06 09:37:26;;;;;;;7.25;3.70;;;;;;;23.39;47.99;101582.81;5113013;28;20024;-63
2023/05/06 09:39:57;;;;;;;7.03;3.70;;;;;;;23.67;48.20;101580.13;5114493;28;20035;-63
2023/05/06 09:42:25;;;;;;;5.20;2.95;;;;;;;23.80;46.04;101585.13;5114118;28;20393;-63
2023/05/06 09:44:58;;;;;;;5.68;3.00;;;;;;;23.92;45.81;101574.81;5114416;28;20028;-63
2023/05/06 09:47:25;;;;;;;7.03;3.53;;;;;;;24.24;47.14;101567.47;5114212;28;20046;-63
2023/05/06 09:49:56;;;;;;;7.05;3.70;;;;;;;24.33;47.52;101572.56;5113937;28;20066;-63
2023/05/06 09:52:22;;;;;;;7.10;4.38;;;;;;;24.34;47.93;101570.72;5114061;28;20027;-63
2023/05/06 09:54:50;;;;;;;9.20;3.40;;;;;;;23.95;46.29;101569.34;5113946;28;20053;-64
2023/05/06 09:57:16;;;;;;;8.02;3.30;;;;;;;23.72;46.99;101572.81;5114307;27;20152;-63
2023/05/06 09:59:43;;;;;;;7.80;3.25;;;;;;;23.76;48.33;101568.16;5113924;28;20081;-63
2023/05/06 10:02:13;;;;;;;5.85;3.08;;;;;;;23.76;45.12;101564.56;5113892;28;20024;-63
2023/05/06 10:04:40;;;;;;;5.00;2.83;;;;;;;24.05;45.39;101559.09;5113991;27;20492;-63
2023/05/06 10:07:08;;;;;;;4.82;2.63;;;;;;;24.51;45.86;101559.34;5113735;28;20110;-63
2023/05/06 10:09:35;;;;;;;5.50;2.80;;;;;;;24.63;45.70;101565.19;5113949;28;20080;-62
2023/05/06 10:12:01;;;;;;;6.10;2.80;;;;;;;24.66;46.78;101559.66;5113480;28;20074;-63
2023/05/06 10:14:27;;;;;;;4.88;2.60;;;;;;;24.85;44.82;101559.88;5113923;28;20115;-63
2023/05/06 10:16:53;;;;;;;4.45;2.58;;;;;;;25.12;44.73;101554.41;5111993;28;20444;-64
2023/05/06 10:19:23;;;;;;;4.50;2.35;;;;;;;25.44;43.99;101550.44;5112536;28;20119;-63
2023/05/06 10:21:58;;;;;;;5.32;2.70;;;;;;;25.37;43.39;101543.50;5113621;28;20055;-63
2023/05/06 10:24:32;;;;;;;6.45;2.75;;;;;;;25.13;42.32;101548.91;5113727;28;20465;-63
2023/05/06 10:27:01;;;;;;;5.50;2.65;;;;;;;24.93;42.93;101538.84;5113927;28;20034;-63
2023/05/06 10:29:27;;;;;;;4.75;2.50;;;;;;;24.84;43.36;101547.31;5112268;28;20059;-62
2023/05/06 10:31:54;;;;;;;4.95;2.22;;;;;;;24.87;42.83;101544.47;5113032;28;20059;-62
2023/05/06 10:34:21;;;;;;;6.05;2.40;;;;;;;24.69;43.92;101539.75;5113507;28;20422;-62
2023/05/06 10:36:56;;;;;;;5.63;2.38;;;;;;;24.40;43.52;101543.50;5113451;28;20057;-62
2023/05/06 10:39:22;;;;;;;5.10;2.30;;;;;;;23.94;43.19;101545.97;5112295;28;20032;-62
2023/05/06 10:41:48;;;;;;;5.93;2.38;;;;;;;23.77;43.46;101533.94;5113520;28;20111;-62
2023/05/06 10:44:13;;;;;;;6.95;2.30;;;;;;;23.56;45.94;101538.22;5113422;28;20020;-62
2023/05/06 10:46:59;;;;;;;4.35;2.10;;;;;;;23.65;45.78;101533.44;5113364;28;20106;-62
2023/05/06 10:49:25;;;;;;;5.15;2.15;;;;;;;23.67;45.10;101530.69;5113407;28;20023;-62
2023/05/06 10:52:10;;;;;;;6.40;2.42;;;;;;;23.42;45.03;101531.44;5113279;28;20032;-62
2023/05/06 10:54:50;;;;;;;4.32;2.20;;;;;;;23.09;47.61;101525.28;5113275;28;20030;-62
2023/05/06 10:57:15;;;;;;;5.63;2.20;;;;;;;23.24;45.80;101523.94;5113327;28;20549;-62
2023/05/06 10:59:45;;;;;;;3.65;2.20;;;;;;;23.25;45.75;101517.59;5113241;28;20055;-62
2023/05/06 11:02:11;;;;;;;3.72;2.22;;;;;;;23.19;47.97;101518.69;5113573;28;20023;-62
2023/05/06 11:04:38;;;;;;;5.32;2.40;;;;;;;23.08;46.25;101525.31;5113224;28;20385;-62
2023/05/06 11:07:20;;;;;;;4.32;2.17;;;;;;;22.91;46.81;101523.13;5112178;28;20032;-61
2023/05/06 11:09:58;;;;;;;4.47;2.20;;;;;;;22.81;47.29;101514.41;5111907;28;20023;-62
2023/05/06 11:12:44;;;;;;;6.50;2.42;;;;;;;22.64;48.56;101514.00;5113122;28;20024;-62
2023/05/06 11:15:42;;;;;;;6.97;2.53;;;;;;;22.34;49.63;101518.44;5111853;28;20091;-62
2023/05/06 11:18:40;;;;;;;4.97;2.20;;;;;;;22.54;48.52;101523.28;5113135;28;20415;-61
2023/05/06 11:21:05;;;;;;;5.22;2.38;;;;;;;22.71;48.83;101518.31;5056708;28;20081;-62